createdAt,value
2018-03-22T09:13:35.296Z,11.93
2018-03-22T09:16:01.574Z,12.77
2018-03-22T09:18:28.475Z,12.80
2018-03-22T09:20:54.768Z,13.03
2018-03-22T09:23:21.730Z,12.57
2018-03-22T09:25:48.070Z,12.47
2018-03-22T09:28:14.395Z,12.60
2018-03-22T09:30:40.685Z,11.50
2018-03-22T09:33:06.978Z,12.07
2018-03-22T09:35:33.881Z,11.67
2018-03-22T09:38:00.181Z,12.20
2018-03-22T09:40:27.381Z,12.43
2018-03-22T09:42:53.635Z,12.27
2018-03-22T09:45:19.970Z,11.63
2018-03-22T09:47:46.270Z,11.50
2018-03-22T09:50:12.546Z,11.47
2018-03-22T09:52:38.821Z,11.17
2018-03-22T09:55:05.148Z,11.73
2018-03-22T09:57:31.950Z,11.30
2018-03-22T09:59:58.206Z,10.63
2018-03-22T10:02:24.679Z,11.13
2018-03-22T10:04:51.221Z,10.90
2018-03-22T10:07:18.356Z,11.17
2018-03-22T10:09:45.512Z,11.00
2018-03-22T10:12:12.049Z,11.00
2018-03-22T10:14:38.329Z,11.33
2018-03-22T10:17:04.591Z,10.83
2018-03-22T10:19:30.892Z,10.33
2018-03-22T10:21:57.832Z,11.33
2018-03-22T10:24:24.106Z,11.13
2018-03-22T10:26:50.647Z,11.10
2018-03-22T10:29:16.968Z,10.63
2018-03-22T10:31:43.513Z,10.23
2018-03-22T10:34:09.795Z,10.80
2018-03-22T10:36:36.721Z,10.77
2018-03-22T10:39:03.634Z,10.00
2018-03-22T10:41:29.899Z,10.07
2018-03-22T10:43:57.566Z,10.27
2018-03-22T10:46:23.888Z,10.27
2018-03-22T10:48:50.649Z,10.10
2018-03-22T10:51:17.183Z,9.60
2018-03-22T10:53:43.662Z,10.33
2018-03-22T10:56:09.956Z,9.90
2018-03-22T10:58:36.238Z,10.03
2018-03-22T11:01:08.579Z,9.33
2018-03-22T11:03:41.171Z,10.43
2018-03-22T11:06:07.747Z,9.93
2018-03-22T11:08:34.028Z,10.30
2018-03-22T11:11:00.316Z,9.97
2018-03-22T11:13:26.800Z,9.50
2018-03-22T11:15:53.108Z,9.67
2018-03-22T11:18:19.540Z,9.47
2018-03-22T11:20:45.852Z,9.47
2018-03-22T11:23:12.113Z,9.50
2018-03-22T11:25:38.398Z,9.33
2018-03-22T11:28:05.339Z,9.37
2018-03-22T11:30:31.939Z,9.00
2018-03-22T11:32:58.236Z,9.00
2018-03-22T11:35:25.471Z,8.80
